sensor_id;sensor_type;location;lat;lon;timestamp;P1;durP1;ratioP1;P2;durP2;ratioP2
18893;SDS011;9579;49.488;8.226;2023-04-15T00:00:45;4.33;;;2.77;;
18893;SDS011;9579;49.488;8.226;2023-04-15T00:03:32;3.53;;;2.73;;
18893;SDS011;9579;49.488;8.226;2023-04-15T00:06:19;4.03;;;2.90;;
18893;SDS011;9579;49.488;8.226;2023-04-15T00:09:07;3.77;;;2.80;;
18893;SDS011;9579;49.488;8.226;2023-04-15T00:11:54;3.27;;;2.70;;
18893;SDS011;9579;49.488;8.226;2023-04-15T00:14:42;4.27;;;2.83;;
18893;SDS011;9579;49.488;8.226;2023-04-15T00:17:30;4.07;;;2.80;;
18893;SDS011;9579;49.488;8.226;2023-04-15T00:22:59;4.33;;;2.60;;
18893;SDS011;9579;49.488;8.226;2023-04-15T00:26:27;2.67;;;2.20;;
18893;SDS011;9579;49.488;8.226;2023-04-15T00:30:00;4.83;;;2.80;;
18893;SDS011;9579;49.488;8.226;2023-04-15T00:33:30;4.93;;;2.60;;
18893;SDS011;9579;49.488;8.226;2023-04-15T00:36:57;3.70;;;2.70;;
18893;SDS011;9579;49.488;8.226;2023-04-15T00:44:35;3.97;;;2.53;;
18893;SDS011;9579;49.488;8.226;2023-04-15T00:48:03;4.40;;;2.53;;
18893;SDS011;9579;49.488;8.226;2023-04-15T01:02:32;4.70;;;2.70;;
18893;SDS011;9579;49.488;8.226;2023-04-15T01:05:39;5.27;;;2.70;;
18893;SDS011;9579;49.488;8.226;2023-04-15T01:11:38;3.43;;;2.30;;
18893;SDS011;9579;49.488;8.226;2023-04-15T01:14:41;2.90;;;2.47;;
18893;SDS011;9579;49.488;8.226;2023-04-15T01:17:33;2.97;;;2.50;;
18893;SDS011;9579;49.488;8.226;2023-04-15T01:20:22;3.10;;;2.70;;
18893;SDS011;9579;49.488;8.226;2023-04-15T01:23:15;3.33;;;2.90;;
18893;SDS011;9579;49.488;8.226;2023-04-15T01:26:15;4.70;;;2.97;;
18893;SDS011;9579;49.488;8.226;2023-04-15T01:42:45;5.30;;;3.47;;
18893;SDS011;9579;49.488;8.226;2023-04-15T01:49:46;5.30;;;3.10;;
18893;SDS011;9579;49.488;8.226;2023-04-15T01:52:54;4.13;;;3.00;;
18893;SDS011;9579;49.488;8.226;2023-04-15T01:56:09;4.57;;;3.00;;
18893;SDS011;9579;49.488;8.226;2023-04-15T01:59:03;4.13;;;3.20;;
18893;SDS011;9579;49.488;8.226;2023-04-15T02:02:01;3.20;;;2.83;;
18893;SDS011;9579;49.488;8.226;2023-04-15T02:04:52;4.23;;;2.93;;
18893;SDS011;9579;49.488;8.226;2023-04-15T02:10:23;4.13;;;3.10;;
18893;SDS011;9579;49.488;8.226;2023-04-15T02:13:20;3.40;;;2.80;;
18893;SDS011;9579;49.488;8.226;2023-04-15T02:16:29;4.00;;;2.90;;
18893;SDS011;9579;49.488;8.226;2023-04-15T02:19:21;3.57;;;2.70;;
18893;SDS011;9579;49.488;8.226;2023-04-15T02:22:14;4.30;;;2.60;;
18893;SDS011;9579;49.488;8.226;2023-04-15T03:00:47;4.80;;;2.67;;
18893;SDS011;9579;49.488;8.226;2023-04-15T03:03:43;4.87;;;3.03;;
18893;SDS011;9579;49.488;8.226;2023-04-15T03:06:35;3.57;;;2.83;;
18893;SDS011;9579;49.488;8.226;2023-04-15T03:09:26;3.07;;;2.70;;
18893;SDS011;9579;49.488;8.226;2023-04-15T03:15:13;3.07;;;2.70;;
18893;SDS011;9579;49.488;8.226;2023-04-15T03:18:21;3.23;;;2.37;;
18893;SDS011;9579;49.488;8.226;2023-04-15T03:21:29;5.00;;;2.77;;
18893;SDS011;9579;49.488;8.226;2023-04-15T03:24:19;3.50;;;3.00;;
18893;SDS011;9579;49.488;8.226;2023-04-15T03:27:10;3.83;;;2.80;;
18893;SDS011;9579;49.488;8.226;2023-04-15T03:30:05;3.90;;;2.80;;
18893;SDS011;9579;49.488;8.226;2023-04-15T03:35:36;3.40;;;2.70;;
18893;SDS011;9579;49.488;8.226;2023-04-15T03:38:33;3.13;;;2.47;;
18893;SDS011;9579;49.488;8.226;2023-04-15T03:41:26;3.40;;;3.07;;
18893;SDS011;9579;49.488;8.226;2023-04-15T03:44:25;3.43;;;2.77;;
18893;SDS011;9579;49.488;8.226;2023-04-15T03:47:15;4.47;;;3.00;;
18893;SDS011;9579;49.488;8.226;2023-04-15T03:50:04;3.10;;;2.67;;
18893;SDS011;9579;49.488;8.226;2023-04-15T03:55:30;4.67;;;2.80;;
18893;SDS011;9579;49.488;8.226;2023-04-15T03:58:17;2.60;;;2.40;;
18893;SDS011;9579;49.488;8.226;2023-04-15T04:01:05;3.00;;;2.70;;
18893;SDS011;9579;49.488;8.226;2023-04-15T04:03:52;4.37;;;2.90;;
18893;SDS011;9579;49.488;8.226;2023-04-15T04:06:40;4.43;;;2.87;;
18893;SDS011;9579;49.488;8.226;2023-04-15T04:09:28;3.60;;;3.17;;
18893;SDS011;9579;49.488;8.226;2023-04-15T04:15:15;4.30;;;3.10;;
18893;SDS011;9579;49.488;8.226;2023-04-15T04:18:04;5.90;;;3.73;;
18893;SDS011;9579;49.488;8.226;2023-04-15T04:20:55;3.83;;;3.10;;
18893;SDS011;9579;49.488;8.226;2023-04-15T04:23:44;5.00;;;3.30;;
18893;SDS011;9579;49.488;8.226;2023-04-15T04:26:32;6.13;;;3.30;;
18893;SDS011;9579;49.488;8.226;2023-04-15T04:29:20;3.53;;;3.23;;
18893;SDS011;9579;49.488;8.226;2023-04-15T04:32:12;5.67;;;3.33;;
18893;SDS011;9579;49.488;8.226;2023-04-15T04:35:00;4.30;;;3.30;;
18893;SDS011;9579;49.488;8.226;2023-04-15T04:38:03;3.77;;;3.10;;
18893;SDS011;9579;49.488;8.226;2023-04-15T04:46:36;9.37;;;3.77;;
18893;SDS011;9579;49.488;8.226;2023-04-15T04:49:41;4.43;;;2.97;;
18893;SDS011;9579;49.488;8.226;2023-04-15T04:52:30;5.10;;;3.17;;
18893;SDS011;9579;49.488;8.226;2023-04-15T04:55:19;4.20;;;3.20;;
18893;SDS011;9579;49.488;8.226;2023-04-15T06:27:09;6.33;;;3.60;;
18893;SDS011;9579;49.488;8.226;2023-04-15T06:29:58;4.93;;;4.13;;
18893;SDS011;9579;49.488;8.226;2023-04-15T06:32:46;4.90;;;3.70;;
18893;SDS011;9579;49.488;8.226;2023-04-15T06:35:33;5.00;;;3.87;;
18893;SDS011;9579;49.488;8.226;2023-04-15T06:38:20;5.27;;;3.80;;
18893;SDS011;9579;49.488;8.226;2023-04-15T06:41:07;4.40;;;3.60;;
18893;SDS011;9579;49.488;8.226;2023-04-15T06:43:55;4.37;;;3.73;;
18893;SDS011;9579;49.488;8.226;2023-04-15T06:46:42;6.03;;;4.20;;
18893;SDS011;9579;49.488;8.226;2023-04-15T06:49:29;7.37;;;5.97;;
18893;SDS011;9579;49.488;8.226;2023-04-15T06:52:18;7.73;;;6.00;;
18893;SDS011;9579;49.488;8.226;2023-04-15T06:55:05;5.93;;;5.13;;
18893;SDS011;9579;49.488;8.226;2023-04-15T06:57:53;7.77;;;6.53;;
18893;SDS011;9579;49.488;8.226;2023-04-15T07:00:41;8.10;;;6.70;;
18893;SDS011;9579;49.488;8.226;2023-04-15T07:03:29;7.97;;;6.40;;
18893;SDS011;9579;49.488;8.226;2023-04-15T07:06:16;5.20;;;3.73;;
18893;SDS011;9579;49.488;8.226;2023-04-15T07:09:06;5.17;;;3.80;;
18893;SDS011;9579;49.488;8.226;2023-04-15T07:11:54;5.17;;;3.97;;
18893;SDS011;9579;49.488;8.226;2023-04-15T07:14:44;4.60;;;3.93;;
18893;SDS011;9579;49.488;8.226;2023-04-15T07:17:32;3.55;;;3.25;;
18893;SDS011;9579;49.488;8.226;2023-04-15T07:20:19;5.07;;;3.97;;
18893;SDS011;9579;49.488;8.226;2023-04-15T07:23:06;5.20;;;3.60;;
18893;SDS011;9579;49.488;8.226;2023-04-15T07:25:54;4.55;;;3.70;;
18893;SDS011;9579;49.488;8.226;2023-04-15T07:28:41;4.20;;;3.80;;
18893;SDS011;9579;49.488;8.226;2023-04-15T07:31:28;5.13;;;3.58;;
18893;SDS011;9579;49.488;8.226;2023-04-15T07:34:17;3.95;;;3.50;;
18893;SDS011;9579;49.488;8.226;2023-04-15T07:37:05;5.25;;;3.75;;
18893;SDS011;9579;49.488;8.226;2023-04-15T07:39:52;5.15;;;3.95;;
18893;SDS011;9579;49.488;8.226;2023-04-15T07:42:39;4.30;;;3.90;;
18893;SDS011;9579;49.488;8.226;2023-04-15T07:45:26;4.80;;;4.03;;
18893;SDS011;9579;49.488;8.226;2023-04-15T07:48:13;5.90;;;4.47;;
18893;SDS011;9579;49.488;8.226;2023-04-15T07:51:02;6.60;;;4.22;;
18893;SDS011;9579;49.488;8.226;2023-04-15T07:53:49;5.25;;;4.45;;
18893;SDS011;9579;49.488;8.226;2023-04-15T07:56:37;4.60;;;4.10;;
18893;SDS011;9579;49.488;8.226;2023-04-15T07:59:24;4.82;;;4.32;;
18893;SDS011;9579;49.488;8.226;2023-04-15T08:02:12;6.70;;;4.80;;
18893;SDS011;9579;49.488;8.226;2023-04-15T08:04:59;5.07;;;4.57;;
18893;SDS011;9579;49.488;8.226;2023-04-15T08:07:48;5.47;;;4.65;;
18893;SDS011;9579;49.488;8.226;2023-04-15T08:10:36;5.15;;;4.65;;
18893;SDS011;9579;49.488;8.226;2023-04-15T08:13:23;5.38;;;4.88;;
18893;SDS011;9579;49.488;8.226;2023-04-15T08:16:20;5.78;;;4.80;;
18893;SDS011;9579;49.488;8.226;2023-04-15T08:19:08;5.10;;;4.57;;
18893;SDS011;9579;49.488;8.226;2023-04-15T08:21:55;6.45;;;5.57;;
18893;SDS011;9579;49.488;8.226;2023-04-15T08:24:44;5.70;;;5.07;;
18893;SDS011;9579;49.488;8.226;2023-04-15T08:27:31;6.30;;;5.18;;
18893;SDS011;9579;49.488;8.226;2023-04-15T08:30:18;5.53;;;5.03;;
18893;SDS011;9579;49.488;8.226;2023-04-15T08:33:05;5.57;;;4.97;;
18893;SDS011;9579;49.488;8.226;2023-04-15T08:35:52;5.32;;;4.60;;
18893;SDS011;9579;49.488;8.226;2023-04-15T08:38:40;5.30;;;4.72;;
18893;SDS011;9579;49.488;8.226;2023-04-15T08:41:28;6.18;;;5.57;;
18893;SDS011;9579;49.488;8.226;2023-04-15T08:44:22;6.00;;;5.40;;
18893;SDS011;9579;49.488;8.226;2023-04-15T08:47:12;6.25;;;5.63;;
18893;SDS011;9579;49.488;8.226;2023-04-15T08:50:00;5.70;;;5.13;;
18893;SDS011;9579;49.488;8.226;2023-04-15T08:52:49;5.80;;;5.20;;
18893;SDS011;9579;49.488;8.226;2023-04-15T08:55:41;6.40;;;5.80;;
18893;SDS011;9579;49.488;8.226;2023-04-15T08:58:31;6.28;;;5.30;;
18893;SDS011;9579;49.488;8.226;2023-04-15T09:01:18;5.80;;;5.30;;
18893;SDS011;9579;49.488;8.226;2023-04-15T09:04:05;6.25;;;5.68;;
18893;SDS011;9579;49.488;8.226;2023-04-15T09:06:53;5.78;;;5.28;;
18893;SDS011;9579;49.488;8.226;2023-04-15T09:09:41;6.80;;;5.80;;
18893;SDS011;9579;49.488;8.226;2023-04-15T09:12:28;6.32;;;5.72;;
18893;SDS011;9579;49.488;8.226;2023-04-15T09:15:17;6.93;;;6.32;;
18893;SDS011;9579;49.488;8.226;2023-04-15T09:18:04;6.05;;;5.45;;
18893;SDS011;9579;49.488;8.226;2023-04-15T09:20:52;6.13;;;5.63;;
18893;SDS011;9579;49.488;8.226;2023-04-15T09:23:39;6.38;;;5.75;;
18893;SDS011;9579;49.488;8.226;2023-04-15T09:26:34;5.78;;;5.13;;
18893;SDS011;9579;49.488;8.226;2023-04-15T09:29:23;6.90;;;6.20;;
18893;SDS011;9579;49.488;8.226;2023-04-15T09:32:12;7.75;;;6.22;;
18893;SDS011;9579;49.488;8.226;2023-04-15T09:35:09;6.85;;;6.22;;
18893;SDS011;9579;49.488;8.226;2023-04-15T09:38:01;6.78;;;6.18;;
18893;SDS011;9579;49.488;8.226;2023-04-15T09:40:49;5.88;;;5.38;;
18893;SDS011;9579;49.488;8.226;2023-04-15T09:43:36;6.53;;;5.93;;
18893;SDS011;9579;49.488;8.226;2023-04-15T09:46:39;8.00;;;6.35;;
18893;SDS011;9579;49.488;8.226;2023-04-15T09:49:28;8.30;;;5.70;;
18893;SDS011;9579;49.488;8.226;2023-04-15T09:52:15;6.20;;;5.65;;
18893;SDS011;9579;49.488;8.226;2023-04-15T09:55:03;5.05;;;4.65;;
18893;SDS011;9579;49.488;8.226;2023-04-15T09:57:52;6.68;;;5.63;;
18893;SDS011;9579;49.488;8.226;2023-04-15T10:00:39;7.45;;;5.57;;
18893;SDS011;9579;49.488;8.226;2023-04-15T10:03:27;6.55;;;5.90;;
18893;SDS011;9579;49.488;8.226;2023-04-15T10:06:17;6.35;;;5.07;;
18893;SDS011;9579;49.488;8.226;2023-04-15T10:09:08;6.00;;;5.03;;
18893;SDS011;9579;49.488;8.226;2023-04-15T10:11:55;6.45;;;5.85;;
18893;SDS011;9579;49.488;8.226;2023-04-15T10:14:42;6.55;;;5.95;;
18893;SDS011;9579;49.488;8.226;2023-04-15T10:17:30;6.30;;;5.70;;
18893;SDS011;9579;49.488;8.226;2023-04-15T10:20:19;5.20;;;4.72;;
18893;SDS011;9579;49.488;8.226;2023-04-15T10:23:09;5.15;;;4.65;;
18893;SDS011;9579;49.488;8.226;2023-04-15T10:25:57;6.22;;;5.38;;
18893;SDS011;9579;49.488;8.226;2023-04-15T10:28:45;7.07;;;6.38;;
18893;SDS011;9579;49.488;8.226;2023-04-15T10:31:35;5.65;;;5.15;;
18893;SDS011;9579;49.488;8.226;2023-04-15T10:34:23;5.65;;;5.15;;
18893;SDS011;9579;49.488;8.226;2023-04-15T10:37:11;5.88;;;5.20;;
18893;SDS011;9579;49.488;8.226;2023-04-15T10:39:59;5.80;;;5.15;;
18893;SDS011;9579;49.488;8.226;2023-04-15T10:42:47;5.10;;;4.70;;
18893;SDS011;9579;49.488;8.226;2023-04-15T10:45:35;5.82;;;5.25;;
18893;SDS011;9579;49.488;8.226;2023-04-15T10:48:23;5.22;;;4.72;;
18893;SDS011;9579;49.488;8.226;2023-04-15T10:51:10;5.35;;;4.85;;
18893;SDS011;9579;49.488;8.226;2023-04-15T10:53:59;10.05;;;6.10;;
18893;SDS011;9579;49.488;8.226;2023-04-15T10:56:48;5.63;;;5.03;;
18893;SDS011;9579;49.488;8.226;2023-04-15T10:59:58;5.82;;;5.28;;
18893;SDS011;9579;49.488;8.226;2023-04-15T11:02:50;5.57;;;4.95;;
18893;SDS011;9579;49.488;8.226;2023-04-15T11:08:53;5.35;;;4.75;;
18893;SDS011;9579;49.488;8.226;2023-04-15T11:14:53;5.07;;;4.38;;
18893;SDS011;9579;49.488;8.226;2023-04-15T11:17:41;5.20;;;4.40;;
18893;SDS011;9579;49.488;8.226;2023-04-15T11:20:30;5.75;;;4.43;;
18893;SDS011;9579;49.488;8.226;2023-04-15T11:23:18;4.95;;;4.30;;
18893;SDS011;9579;49.488;8.226;2023-04-15T11:26:12;5.88;;;4.60;;
18893;SDS011;9579;49.488;8.226;2023-04-15T11:29:01;4.25;;;3.85;;
18893;SDS011;9579;49.488;8.226;2023-04-15T11:31:49;4.97;;;4.00;;
18893;SDS011;9579;49.488;8.226;2023-04-15T11:34:36;4.15;;;3.63;;
18893;SDS011;9579;49.488;8.226;2023-04-15T11:37:26;4.38;;;3.47;;
18893;SDS011;9579;49.488;8.226;2023-04-15T11:40:14;4.70;;;3.78;;
18893;SDS011;9579;49.488;8.226;2023-04-15T11:43:03;4.72;;;4.00;;
18893;SDS011;9579;49.488;8.226;2023-04-15T11:45:55;5.20;;;4.00;;
18893;SDS011;9579;49.488;8.226;2023-04-15T11:48:44;5.18;;;3.83;;
18893;SDS011;9579;49.488;8.226;2023-04-15T11:51:32;4.15;;;3.83;;
18893;SDS011;9579;49.488;8.226;2023-04-15T11:54:19;4.45;;;4.05;;
18893;SDS011;9579;49.488;8.226;2023-04-15T11:57:06;4.72;;;3.90;;
18893;SDS011;9579;49.488;8.226;2023-04-15T11:59:53;4.47;;;4.07;;
18893;SDS011;9579;49.488;8.226;2023-04-15T12:02:42;4.40;;;4.00;;
18893;SDS011;9579;49.488;8.226;2023-04-15T12:05:29;4.43;;;3.95;;
18893;SDS011;9579;49.488;8.226;2023-04-15T12:08:16;4.80;;;4.30;;
18893;SDS011;9579;49.488;8.226;2023-04-15T12:11:03;5.38;;;4.13;;
18893;SDS011;9579;49.488;8.226;2023-04-15T12:13:52;4.85;;;4.32;;
18893;SDS011;9579;49.488;8.226;2023-04-15T12:16:41;5.20;;;4.45;;
18893;SDS011;9579;49.488;8.226;2023-04-15T12:19:33;6.57;;;5.20;;
18893;SDS011;9579;49.488;8.226;2023-04-15T12:22:22;4.57;;;3.53;;
18893;SDS011;9579;49.488;8.226;2023-04-15T12:25:09;4.32;;;3.30;;
18893;SDS011;9579;49.488;8.226;2023-04-15T12:27:56;4.30;;;3.40;;
18893;SDS011;9579;49.488;8.226;2023-04-15T12:30:47;4.30;;;2.92;;
18893;SDS011;9579;49.488;8.226;2023-04-15T12:33:35;2.97;;;2.67;;
18893;SDS011;9579;49.488;8.226;2023-04-15T12:36:24;2.65;;;2.45;;
18893;SDS011;9579;49.488;8.226;2023-04-15T12:39:11;4.15;;;2.33;;
18893;SDS011;9579;49.488;8.226;2023-04-15T12:41:58;3.08;;;2.33;;
18893;SDS011;9579;49.488;8.226;2023-04-15T12:44:46;7.55;;;2.50;;
18893;SDS011;9579;49.488;8.226;2023-04-15T12:47:33;13.10;;;3.38;;
18893;SDS011;9579;49.488;8.226;2023-04-15T12:50:20;11.23;;;3.22;;
18893;SDS011;9579;49.488;8.226;2023-04-15T12:53:08;5.65;;;2.53;;
18893;SDS011;9579;49.488;8.226;2023-04-15T12:55:55;4.53;;;2.30;;
18893;SDS011;9579;49.488;8.226;2023-04-15T12:58:42;2.92;;;1.90;;
18893;SDS011;9579;49.488;8.226;2023-04-15T13:01:29;4.78;;;1.70;;
18893;SDS011;9579;49.488;8.226;2023-04-15T13:04:16;4.28;;;1.73;;
18893;SDS011;9579;49.488;8.226;2023-04-15T13:07:04;3.53;;;1.83;;
18893;SDS011;9579;49.488;8.226;2023-04-15T13:09:53;2.28;;;1.70;;
18893;SDS011;9579;49.488;8.226;2023-04-15T13:12:40;2.63;;;1.65;;
18893;SDS011;9579;49.488;8.226;2023-04-15T13:15:27;2.05;;;1.70;;
18893;SDS011;9579;49.488;8.226;2023-04-15T13:18:14;2.22;;;1.70;;
18893;SDS011;9579;49.488;8.226;2023-04-15T13:21:01;2.28;;;2.08;;
18893;SDS011;9579;49.488;8.226;2023-04-15T13:23:48;2.05;;;1.88;;
18893;SDS011;9579;49.488;8.226;2023-04-15T13:26:37;2.40;;;2.00;;
18893;SDS011;9579;49.488;8.226;2023-04-15T13:29:24;3.33;;;2.33;;
18893;SDS011;9579;49.488;8.226;2023-04-15T13:32:11;2.80;;;2.50;;
18893;SDS011;9579;49.488;8.226;2023-04-15T13:34:59;2.97;;;2.35;;
18893;SDS011;9579;49.488;8.226;2023-04-15T13:37:46;2.55;;;1.90;;
18893;SDS011;9579;49.488;8.226;2023-04-15T13:40:33;1.98;;;1.77;;
18893;SDS011;9579;49.488;8.226;2023-04-15T13:43:21;3.58;;;1.75;;
18893;SDS011;9579;49.488;8.226;2023-04-15T13:46:08;1.58;;;1.20;;
18893;SDS011;9579;49.488;8.226;2023-04-15T13:48:55;0.80;;;0.80;;
18893;SDS011;9579;49.488;8.226;2023-04-15T13:51:42;0.90;;;0.90;;
18893;SDS011;9579;49.488;8.226;2023-04-15T13:54:30;1.00;;;0.90;;
18893;SDS011;9579;49.488;8.226;2023-04-15T13:57:17;2.13;;;1.10;;
18893;SDS011;9579;49.488;8.226;2023-04-15T14:00:06;1.20;;;1.00;;
18893;SDS011;9579;49.488;8.226;2023-04-15T14:02:53;0.90;;;0.80;;
18893;SDS011;9579;49.488;8.226;2023-04-15T14:05:41;1.17;;;0.80;;
18893;SDS011;9579;49.488;8.226;2023-04-15T14:08:28;1.65;;;1.00;;
18893;SDS011;9579;49.488;8.226;2023-04-15T14:11:15;1.45;;;0.90;;
18893;SDS011;9579;49.488;8.226;2023-04-15T14:14:02;1.00;;;1.00;;
18893;SDS011;9579;49.488;8.226;2023-04-15T14:16:51;2.05;;;1.10;;
18893;SDS011;9579;49.488;8.226;2023-04-15T14:19:39;1.08;;;1.02;;
18893;SDS011;9579;49.488;8.226;2023-04-15T14:22:26;1.10;;;1.00;;
18893;SDS011;9579;49.488;8.226;2023-04-15T14:25:13;0.93;;;0.93;;
18893;SDS011;9579;49.488;8.226;2023-04-15T14:28:00;1.17;;;1.08;;
18893;SDS011;9579;49.488;8.226;2023-04-15T14:30:47;3.22;;;1.27;;
18893;SDS011;9579;49.488;8.226;2023-04-15T14:33:36;1.38;;;1.10;;
18893;SDS011;9579;49.488;8.226;2023-04-15T14:36:23;1.52;;;1.13;;
18893;SDS011;9579;49.488;8.226;2023-04-15T14:39:10;2.15;;;1.00;;
18893;SDS011;9579;49.488;8.226;2023-04-15T14:41:59;1.10;;;0.95;;
18893;SDS011;9579;49.488;8.226;2023-04-15T14:44:46;1.50;;;1.30;;
18893;SDS011;9579;49.488;8.226;2023-04-15T14:47:33;1.73;;;1.50;;
18893;SDS011;9579;49.488;8.226;2023-04-15T14:50:21;1.60;;;1.50;;
18893;SDS011;9579;49.488;8.226;2023-04-15T14:53:08;1.65;;;1.55;;
18893;SDS011;9579;49.488;8.226;2023-04-15T14:55:55;1.70;;;1.60;;
18893;SDS011;9579;49.488;8.226;2023-04-15T14:58:42;2.10;;;1.90;;
18893;SDS011;9579;49.488;8.226;2023-04-15T15:01:29;2.03;;;1.83;;
18893;SDS011;9579;49.488;8.226;2023-04-15T15:04:16;2.45;;;1.90;;
18893;SDS011;9579;49.488;8.226;2023-04-15T15:07:05;1.67;;;1.52;;
18893;SDS011;9579;49.488;8.226;2023-04-15T15:09:52;2.00;;;1.90;;
18893;SDS011;9579;49.488;8.226;2023-04-15T15:12:39;2.20;;;2.10;;
18893;SDS011;9579;49.488;8.226;2023-04-15T15:15:26;2.40;;;2.20;;
18893;SDS011;9579;49.488;8.226;2023-04-15T15:18:14;2.15;;;2.05;;
18893;SDS011;9579;49.488;8.226;2023-04-15T15:21:02;2.40;;;2.30;;
18893;SDS011;9579;49.488;8.226;2023-04-15T15:23:50;2.70;;;2.22;;
18893;SDS011;9579;49.488;8.226;2023-04-15T15:26:38;4.13;;;3.83;;
18893;SDS011;9579;49.488;8.226;2023-04-15T15:29:25;2.88;;;2.35;;
18893;SDS011;9579;49.488;8.226;2023-04-15T15:32:12;2.95;;;2.75;;
18893;SDS011;9579;49.488;8.226;2023-04-15T15:34:59;2.88;;;2.70;;
18893;SDS011;9579;49.488;8.226;2023-04-15T15:37:46;2.50;;;2.40;;
18893;SDS011;9579;49.488;8.226;2023-04-15T15:40:35;2.67;;;2.47;;
18893;SDS011;9579;49.488;8.226;2023-04-15T15:43:22;2.67;;;2.47;;
18893;SDS011;9579;49.488;8.226;2023-04-15T15:46:09;2.42;;;2.22;;
18893;SDS011;9579;49.488;8.226;2023-04-15T15:48:53;2.80;;;2.60;;
18893;SDS011;9579;49.488;8.226;2023-04-15T22:05:49;5.70;;;5.30;;
18893;SDS011;9579;49.488;8.226;2023-04-15T22:08:37;6.57;;;6.07;;
